sensor_id;sensor_type;location;lat;lon;timestamp;P1;durP1;ratioP1;P2;durP2;ratioP2
23163;SDS011;31429;42.674;23.350;2024-01-11T00:00:20;51.93;;;34.50;;
23163;SDS011;31429;42.674;23.350;2024-01-11T00:01:21;58.00;;;36.37;;
23163;SDS011;31429;42.674;23.350;2024-01-11T00:02:23;56.03;;;35.28;;
23163;SDS011;31429;42.674;23.350;2024-01-11T00:03:24;54.55;;;35.97;;
23163;SDS011;31429;42.674;23.350;2024-01-11T00:04:25;55.08;;;35.03;;
23163;SDS011;31429;42.674;23.350;2024-01-11T00:05:26;58.60;;;34.73;;
23163;SDS011;31429;42.674;23.350;2024-01-11T00:06:27;56.93;;;35.70;;
23163;SDS011;31429;42.674;23.350;2024-01-11T00:07:28;57.20;;;37.23;;
23163;SDS011;31429;42.674;23.350;2024-01-11T00:08:29;59.83;;;36.50;;
23163;SDS011;31429;42.674;23.350;2024-01-11T00:09:30;53.20;;;34.67;;
23163;SDS011;31429;42.674;23.350;2024-01-11T00:10:31;56.53;;;34.83;;
23163;SDS011;31429;42.674;23.350;2024-01-11T00:11:32;55.53;;;34.73;;
23163;SDS011;31429;42.674;23.350;2024-01-11T00:12:32;55.70;;;34.20;;
23163;SDS011;31429;42.674;23.350;2024-01-11T00:13:35;57.57;;;36.50;;
23163;SDS011;31429;42.674;23.350;2024-01-11T00:14:35;63.17;;;39.50;;
23163;SDS011;31429;42.674;23.350;2024-01-11T00:15:36;63.08;;;38.67;;
23163;SDS011;31429;42.674;23.350;2024-01-11T00:16:37;65.50;;;40.27;;
23163;SDS011;31429;42.674;23.350;2024-01-11T00:17:38;61.60;;;38.10;;
23163;SDS011;31429;42.674;23.350;2024-01-11T00:18:39;59.60;;;38.33;;
23163;SDS011;31429;42.674;23.350;2024-01-11T00:19:40;58.90;;;36.93;;
23163;SDS011;31429;42.674;23.350;2024-01-11T00:20:40;57.27;;;35.90;;
23163;SDS011;31429;42.674;23.350;2024-01-11T00:21:41;65.72;;;39.50;;
23163;SDS011;31429;42.674;23.350;2024-01-11T00:22:42;64.63;;;39.73;;
23163;SDS011;31429;42.674;23.350;2024-01-11T00:23:43;63.93;;;40.17;;
23163;SDS011;31429;42.674;23.350;2024-01-11T00:24:44;63.13;;;40.57;;
23163;SDS011;31429;42.674;23.350;2024-01-11T00:25:44;63.90;;;40.13;;
23163;SDS011;31429;42.674;23.350;2024-01-11T00:26:45;63.57;;;40.27;;
23163;SDS011;31429;42.674;23.350;2024-01-11T00:27:46;68.77;;;44.90;;
23163;SDS011;31429;42.674;23.350;2024-01-11T00:28:48;70.50;;;43.60;;
23163;SDS011;31429;42.674;23.350;2024-01-11T00:29:49;73.80;;;45.22;;
23163;SDS011;31429;42.674;23.350;2024-01-11T00:30:50;68.63;;;43.67;;
23163;SDS011;31429;42.674;23.350;2024-01-11T00:31:51;68.80;;;43.07;;
23163;SDS011;31429;42.674;23.350;2024-01-11T00:32:51;70.80;;;42.53;;
23163;SDS011;31429;42.674;23.350;2024-01-11T00:33:52;70.63;;;43.90;;
23163;SDS011;31429;42.674;23.350;2024-01-11T00:34:53;72.87;;;42.67;;
23163;SDS011;31429;42.674;23.350;2024-01-11T00:35:54;66.27;;;42.07;;
23163;SDS011;31429;42.674;23.350;2024-01-11T00:36:54;62.47;;;41.37;;
23163;SDS011;31429;42.674;23.350;2024-01-11T00:37:55;71.03;;;43.00;;
23163;SDS011;31429;42.674;23.350;2024-01-11T00:38:56;68.13;;;41.77;;
23163;SDS011;31429;42.674;23.350;2024-01-11T00:39:57;66.73;;;42.70;;
23163;SDS011;31429;42.674;23.350;2024-01-11T00:40:58;72.00;;;43.63;;
23163;SDS011;31429;42.674;23.350;2024-01-11T00:41:58;66.30;;;43.27;;
23163;SDS011;31429;42.674;23.350;2024-01-11T00:42:59;70.37;;;43.87;;
23163;SDS011;31429;42.674;23.350;2024-01-11T00:44:01;70.07;;;43.10;;
23163;SDS011;31429;42.674;23.350;2024-01-11T00:45:03;68.72;;;42.67;;
23163;SDS011;31429;42.674;23.350;2024-01-11T00:46:04;73.30;;;43.60;;
23163;SDS011;31429;42.674;23.350;2024-01-11T00:47:05;73.70;;;44.87;;
23163;SDS011;31429;42.674;23.350;2024-01-11T00:48:06;75.00;;;44.53;;
23163;SDS011;31429;42.674;23.350;2024-01-11T00:49:07;68.40;;;43.40;;
23163;SDS011;31429;42.674;23.350;2024-01-11T00:50:08;70.80;;;43.08;;
23163;SDS011;31429;42.674;23.350;2024-01-11T00:51:09;70.50;;;43.75;;
23163;SDS011;31429;42.674;23.350;2024-01-11T00:52:10;72.23;;;43.87;;
23163;SDS011;31429;42.674;23.350;2024-01-11T00:53:14;73.70;;;44.25;;
23163;SDS011;31429;42.674;23.350;2024-01-11T00:54:14;66.33;;;42.83;;
23163;SDS011;31429;42.674;23.350;2024-01-11T00:55:15;68.53;;;42.73;;
23163;SDS011;31429;42.674;23.350;2024-01-11T00:56:16;71.60;;;44.85;;
23163;SDS011;31429;42.674;23.350;2024-01-11T00:57:17;76.25;;;46.78;;
23163;SDS011;31429;42.674;23.350;2024-01-11T00:58:18;76.63;;;48.23;;
23163;SDS011;31429;42.674;23.350;2024-01-11T00:59:20;84.57;;;52.53;;
23163;SDS011;31429;42.674;23.350;2024-01-11T01:00:21;93.63;;;56.92;;
23163;SDS011;31429;42.674;23.350;2024-01-11T01:01:22;81.47;;;50.93;;
23163;SDS011;31429;42.674;23.350;2024-01-11T01:02:22;83.95;;;53.00;;
23163;SDS011;31429;42.674;23.350;2024-01-11T01:03:23;103.83;;;61.50;;
23163;SDS011;31429;42.674;23.350;2024-01-11T01:04:24;73.60;;;48.70;;
23163;SDS011;31429;42.674;23.350;2024-01-11T01:05:25;88.80;;;55.90;;
23163;SDS011;31429;42.674;23.350;2024-01-11T01:06:26;91.13;;;56.70;;
23163;SDS011;31429;42.674;23.350;2024-01-11T01:07:27;93.80;;;56.75;;
23163;SDS011;31429;42.674;23.350;2024-01-11T01:08:28;99.93;;;61.03;;
23163;SDS011;31429;42.674;23.350;2024-01-11T01:09:29;89.27;;;57.87;;
23163;SDS011;31429;42.674;23.350;2024-01-11T01:10:30;133.18;;;82.40;;
23163;SDS011;31429;42.674;23.350;2024-01-11T01:11:31;156.47;;;94.67;;
23163;SDS011;31429;42.674;23.350;2024-01-11T01:12:32;172.77;;;103.57;;
23163;SDS011;31429;42.674;23.350;2024-01-11T01:13:33;113.27;;;69.63;;
23163;SDS011;31429;42.674;23.350;2024-01-11T01:14:35;116.40;;;70.27;;
23163;SDS011;31429;42.674;23.350;2024-01-11T01:15:36;114.97;;;70.78;;
23163;SDS011;31429;42.674;23.350;2024-01-11T01:16:36;127.90;;;78.63;;
23163;SDS011;31429;42.674;23.350;2024-01-11T01:17:37;116.23;;;71.80;;
23163;SDS011;31429;42.674;23.350;2024-01-11T01:18:38;122.43;;;74.83;;
23163;SDS011;31429;42.674;23.350;2024-01-11T01:19:39;79.00;;;45.40;;
23163;SDS011;31429;42.674;23.350;2024-01-11T01:20:40;80.93;;;48.47;;
23163;SDS011;31429;42.674;23.350;2024-01-11T01:21:40;72.70;;;45.77;;
23163;SDS011;31429;42.674;23.350;2024-01-11T01:22:41;62.47;;;40.87;;
23163;SDS011;31429;42.674;23.350;2024-01-11T01:23:42;69.57;;;42.73;;
23163;SDS011;31429;42.674;23.350;2024-01-11T01:24:43;61.43;;;39.13;;
23163;SDS011;31429;42.674;23.350;2024-01-11T01:25:44;54.28;;;35.95;;
23163;SDS011;31429;42.674;23.350;2024-01-11T01:26:45;66.97;;;41.35;;
23163;SDS011;31429;42.674;23.350;2024-01-11T01:27:46;66.13;;;43.13;;
23163;SDS011;31429;42.674;23.350;2024-01-11T01:28:46;68.30;;;40.87;;
23163;SDS011;31429;42.674;23.350;2024-01-11T01:29:49;79.30;;;50.77;;
23163;SDS011;31429;42.674;23.350;2024-01-11T01:30:49;109.53;;;69.63;;
23163;SDS011;31429;42.674;23.350;2024-01-11T01:31:50;67.70;;;42.53;;
23163;SDS011;31429;42.674;23.350;2024-01-11T01:32:51;69.13;;;45.00;;
23163;SDS011;31429;42.674;23.350;2024-01-11T01:33:52;79.60;;;52.50;;
23163;SDS011;31429;42.674;23.350;2024-01-11T01:34:53;75.40;;;48.53;;
23163;SDS011;31429;42.674;23.350;2024-01-11T01:35:53;55.53;;;36.60;;
23163;SDS011;31429;42.674;23.350;2024-01-11T01:36:54;70.97;;;45.27;;
23163;SDS011;31429;42.674;23.350;2024-01-11T01:37:55;56.70;;;36.33;;
23163;SDS011;31429;42.674;23.350;2024-01-11T01:38:56;55.20;;;37.40;;
23163;SDS011;31429;42.674;23.350;2024-01-11T01:39:57;55.03;;;35.77;;
23163;SDS011;31429;42.674;23.350;2024-01-11T01:40:57;52.37;;;34.97;;
23163;SDS011;31429;42.674;23.350;2024-01-11T01:41:58;52.83;;;35.73;;
23163;SDS011;31429;42.674;23.350;2024-01-11T01:42:59;52.77;;;35.43;;
23163;SDS011;31429;42.674;23.350;2024-01-11T01:44:00;52.67;;;36.38;;
23163;SDS011;31429;42.674;23.350;2024-01-11T01:45:03;51.77;;;36.07;;
23163;SDS011;31429;42.674;23.350;2024-01-11T01:46:05;54.03;;;34.58;;
23163;SDS011;31429;42.674;23.350;2024-01-11T01:47:07;51.00;;;35.40;;
23163;SDS011;31429;42.674;23.350;2024-01-11T01:48:09;53.33;;;34.78;;
23163;SDS011;31429;42.674;23.350;2024-01-11T01:49:10;50.40;;;33.37;;
23163;SDS011;31429;42.674;23.350;2024-01-11T01:50:12;48.92;;;31.90;;
23163;SDS011;31429;42.674;23.350;2024-01-11T01:51:13;53.30;;;33.17;;
23163;SDS011;31429;42.674;23.350;2024-01-11T01:52:14;51.78;;;33.95;;
23163;SDS011;31429;42.674;23.350;2024-01-11T01:53:16;52.03;;;33.60;;
23163;SDS011;31429;42.674;23.350;2024-01-11T01:54:18;53.20;;;35.22;;
23163;SDS011;31429;42.674;23.350;2024-01-11T01:55:20;58.22;;;36.67;;
23163;SDS011;31429;42.674;23.350;2024-01-11T01:56:22;58.97;;;37.10;;
23163;SDS011;31429;42.674;23.350;2024-01-11T01:57:23;57.38;;;38.63;;
23163;SDS011;31429;42.674;23.350;2024-01-11T01:58:25;59.67;;;36.97;;
23163;SDS011;31429;42.674;23.350;2024-01-11T01:59:26;54.07;;;36.73;;
23163;SDS011;31429;42.674;23.350;2024-01-11T02:00:31;57.50;;;36.95;;
23163;SDS011;31429;42.674;23.350;2024-01-11T02:01:32;57.58;;;37.83;;
23163;SDS011;31429;42.674;23.350;2024-01-11T02:02:33;57.60;;;37.97;;
23163;SDS011;31429;42.674;23.350;2024-01-11T02:03:35;54.05;;;36.00;;
23163;SDS011;31429;42.674;23.350;2024-01-11T02:04:36;56.22;;;35.40;;
23163;SDS011;31429;42.674;23.350;2024-01-11T02:05:37;54.67;;;34.93;;
23163;SDS011;31429;42.674;23.350;2024-01-11T02:06:38;51.78;;;33.97;;
23163;SDS011;31429;42.674;23.350;2024-01-11T02:07:40;51.65;;;35.00;;
23163;SDS011;31429;42.674;23.350;2024-01-11T02:08:41;56.08;;;36.45;;
23163;SDS011;31429;42.674;23.350;2024-01-11T02:09:43;54.75;;;35.78;;
23163;SDS011;31429;42.674;23.350;2024-01-11T02:10:44;58.80;;;36.47;;
23163;SDS011;31429;42.674;23.350;2024-01-11T02:11:46;59.42;;;36.58;;
23163;SDS011;31429;42.674;23.350;2024-01-11T02:12:47;54.65;;;35.75;;
23163;SDS011;31429;42.674;23.350;2024-01-11T02:13:48;55.40;;;36.43;;
23163;SDS011;31429;42.674;23.350;2024-01-11T02:14:49;58.70;;;37.17;;
23163;SDS011;31429;42.674;23.350;2024-01-11T02:15:51;52.33;;;36.58;;
23163;SDS011;31429;42.674;23.350;2024-01-11T02:16:52;57.85;;;35.97;;
23163;SDS011;31429;42.674;23.350;2024-01-11T02:17:53;55.97;;;35.83;;
23163;SDS011;31429;42.674;23.350;2024-01-11T02:18:54;55.10;;;35.23;;
23163;SDS011;31429;42.674;23.350;2024-01-11T02:19:55;55.00;;;35.67;;
23163;SDS011;31429;42.674;23.350;2024-01-11T02:20:56;57.22;;;37.22;;
23163;SDS011;31429;42.674;23.350;2024-01-11T02:21:57;61.30;;;38.25;;
23163;SDS011;31429;42.674;23.350;2024-01-11T02:23:05;67.80;;;39.88;;
23163;SDS011;31429;42.674;23.350;2024-01-11T02:24:10;70.00;;;42.53;;
23163;SDS011;31429;42.674;23.350;2024-01-11T02:25:11;66.72;;;43.10;;
23163;SDS011;31429;42.674;23.350;2024-01-11T02:26:12;66.83;;;41.60;;
23163;SDS011;31429;42.674;23.350;2024-01-11T02:27:14;68.15;;;44.67;;
23163;SDS011;31429;42.674;23.350;2024-01-11T02:28:14;77.93;;;48.43;;
23163;SDS011;31429;42.674;23.350;2024-01-11T02:29:15;69.97;;;44.50;;
23163;SDS011;31429;42.674;23.350;2024-01-11T02:30:16;60.87;;;39.37;;
23163;SDS011;31429;42.674;23.350;2024-01-11T02:31:17;64.47;;;36.97;;
23163;SDS011;31429;42.674;23.350;2024-01-11T02:32:18;57.80;;;37.87;;
23163;SDS011;31429;42.674;23.350;2024-01-11T02:33:20;62.22;;;38.00;;
23163;SDS011;31429;42.674;23.350;2024-01-11T02:34:21;67.17;;;39.50;;
23163;SDS011;31429;42.674;23.350;2024-01-11T02:35:22;65.57;;;40.00;;
23163;SDS011;31429;42.674;23.350;2024-01-11T02:36:25;63.70;;;39.92;;
23163;SDS011;31429;42.674;23.350;2024-01-11T02:37:26;63.70;;;40.60;;
23163;SDS011;31429;42.674;23.350;2024-01-11T02:38:26;63.87;;;40.27;;
23163;SDS011;31429;42.674;23.350;2024-01-11T02:39:29;62.50;;;38.90;;
23163;SDS011;31429;42.674;23.350;2024-01-11T02:40:30;65.57;;;38.90;;
23163;SDS011;31429;42.674;23.350;2024-01-11T02:41:31;63.13;;;41.22;;
23163;SDS011;31429;42.674;23.350;2024-01-11T02:42:32;67.25;;;41.00;;
23163;SDS011;31429;42.674;23.350;2024-01-11T02:43:33;63.30;;;37.87;;
23163;SDS011;31429;42.674;23.350;2024-01-11T02:44:37;65.00;;;38.45;;
23163;SDS011;31429;42.674;23.350;2024-01-11T02:45:38;66.73;;;39.90;;
23163;SDS011;31429;42.674;23.350;2024-01-11T02:46:39;59.97;;;39.20;;
23163;SDS011;31429;42.674;23.350;2024-01-11T02:47:40;59.73;;;37.73;;
23163;SDS011;31429;42.674;23.350;2024-01-11T02:48:41;65.88;;;39.25;;
23163;SDS011;31429;42.674;23.350;2024-01-11T02:49:42;66.67;;;41.87;;
23163;SDS011;31429;42.674;23.350;2024-01-11T02:50:42;59.17;;;37.60;;
23163;SDS011;31429;42.674;23.350;2024-01-11T02:52:02;63.17;;;39.25;;
23163;SDS011;31429;42.674;23.350;2024-01-11T02:53:03;58.60;;;38.35;;
23163;SDS011;31429;42.674;23.350;2024-01-11T02:54:04;60.57;;;38.63;;
23163;SDS011;31429;42.674;23.350;2024-01-11T02:55:07;58.37;;;38.50;;
23163;SDS011;31429;42.674;23.350;2024-01-11T02:56:09;57.13;;;35.88;;
23163;SDS011;31429;42.674;23.350;2024-01-11T02:57:09;54.93;;;35.60;;
23163;SDS011;31429;42.674;23.350;2024-01-11T02:58:10;56.33;;;34.07;;
23163;SDS011;31429;42.674;23.350;2024-01-11T02:59:11;52.23;;;32.90;;
23163;SDS011;31429;42.674;23.350;2024-01-11T03:00:12;51.40;;;31.77;;
23163;SDS011;31429;42.674;23.350;2024-01-11T03:01:13;55.97;;;32.83;;
23163;SDS011;31429;42.674;23.350;2024-01-11T03:02:14;50.37;;;32.80;;
23163;SDS011;31429;42.674;23.350;2024-01-11T03:03:15;53.83;;;33.37;;
23163;SDS011;31429;42.674;23.350;2024-01-11T03:04:16;53.33;;;32.63;;
23163;SDS011;31429;42.674;23.350;2024-01-11T03:05:17;53.58;;;34.15;;
23163;SDS011;31429;42.674;23.350;2024-01-11T03:06:17;53.03;;;32.83;;
23163;SDS011;31429;42.674;23.350;2024-01-11T03:07:22;47.67;;;31.23;;
23163;SDS011;31429;42.674;23.350;2024-01-11T03:08:23;48.33;;;31.23;;
23163;SDS011;31429;42.674;23.350;2024-01-11T03:09:24;47.73;;;29.50;;
23163;SDS011;31429;42.674;23.350;2024-01-11T03:10:26;51.90;;;30.70;;
23163;SDS011;31429;42.674;23.350;2024-01-11T03:11:27;48.05;;;31.25;;
23163;SDS011;31429;42.674;23.350;2024-01-11T03:12:27;52.07;;;32.07;;
23163;SDS011;31429;42.674;23.350;2024-01-11T03:13:28;48.08;;;30.17;;
23163;SDS011;31429;42.674;23.350;2024-01-11T03:14:29;48.07;;;29.07;;
23163;SDS011;31429;42.674;23.350;2024-01-11T03:15:30;45.47;;;29.03;;
23163;SDS011;31429;42.674;23.350;2024-01-11T03:16:31;45.07;;;29.87;;
23163;SDS011;31429;42.674;23.350;2024-01-11T03:17:32;47.63;;;28.47;;
23163;SDS011;31429;42.674;23.350;2024-01-11T03:18:33;43.28;;;29.30;;
23163;SDS011;31429;42.674;23.350;2024-01-11T03:19:38;43.10;;;28.20;;
23163;SDS011;31429;42.674;23.350;2024-01-11T03:20:39;45.15;;;28.05;;
23163;SDS011;31429;42.674;23.350;2024-01-11T03:21:41;44.27;;;27.60;;
23163;SDS011;31429;42.674;23.350;2024-01-11T03:22:45;41.03;;;26.00;;
23163;SDS011;31429;42.674;23.350;2024-01-11T03:23:46;38.13;;;24.17;;
23163;SDS011;31429;42.674;23.350;2024-01-11T03:24:47;43.20;;;25.03;;
23163;SDS011;31429;42.674;23.350;2024-01-11T03:25:49;37.97;;;23.67;;
23163;SDS011;31429;42.674;23.350;2024-01-11T03:26:50;34.53;;;23.88;;
23163;SDS011;31429;42.674;23.350;2024-01-11T03:27:51;36.43;;;23.30;;
23163;SDS011;31429;42.674;23.350;2024-01-11T03:28:52;35.20;;;24.00;;
23163;SDS011;31429;42.674;23.350;2024-01-11T03:29:52;35.10;;;23.13;;
23163;SDS011;31429;42.674;23.350;2024-01-11T03:30:53;36.73;;;23.13;;
23163;SDS011;31429;42.674;23.350;2024-01-11T03:31:54;35.20;;;23.52;;
23163;SDS011;31429;42.674;23.350;2024-01-11T03:32:55;40.53;;;24.00;;
23163;SDS011;31429;42.674;23.350;2024-01-11T03:33:56;39.13;;;24.80;;
23163;SDS011;31429;42.674;23.350;2024-01-11T03:34:57;41.70;;;25.07;;
23163;SDS011;31429;42.674;23.350;2024-01-11T03:35:58;38.33;;;25.33;;
23163;SDS011;31429;42.674;23.350;2024-01-11T03:36:58;37.30;;;23.90;;
23163;SDS011;31429;42.674;23.350;2024-01-11T03:37:59;35.83;;;24.70;;
23163;SDS011;31429;42.674;23.350;2024-01-11T03:39:00;40.37;;;24.43;;
23163;SDS011;31429;42.674;23.350;2024-01-11T03:40:02;37.83;;;24.95;;
23163;SDS011;31429;42.674;23.350;2024-01-11T03:41:08;41.00;;;24.58;;
23163;SDS011;31429;42.674;23.350;2024-01-11T03:42:10;39.55;;;24.00;;
23163;SDS011;31429;42.674;23.350;2024-01-11T03:43:10;40.53;;;26.03;;
23163;SDS011;31429;42.674;23.350;2024-01-11T03:44:11;38.37;;;25.13;;
23163;SDS011;31429;42.674;23.350;2024-01-11T03:45:12;42.15;;;25.38;;
23163;SDS011;31429;42.674;23.350;2024-01-11T03:46:13;36.27;;;25.40;;
23163;SDS011;31429;42.674;23.350;2024-01-11T03:47:14;40.17;;;25.93;;
23163;SDS011;31429;42.674;23.350;2024-01-11T03:48:14;40.70;;;25.93;;
23163;SDS011;31429;42.674;23.350;2024-01-11T03:49:15;40.97;;;25.30;;
23163;SDS011;31429;42.674;23.350;2024-01-11T03:50:16;42.13;;;26.83;;
23163;SDS011;31429;42.674;23.350;2024-01-11T03:51:17;43.20;;;26.70;;
23163;SDS011;31429;42.674;23.350;2024-01-11T03:52:17;44.97;;;28.20;;
23163;SDS011;31429;42.674;23.350;2024-01-11T03:53:18;40.70;;;27.27;;
23163;SDS011;31429;42.674;23.350;2024-01-11T03:54:19;49.93;;;29.27;;
23163;SDS011;31429;42.674;23.350;2024-01-11T03:55:20;48.83;;;30.93;;
23163;SDS011;31429;42.674;23.350;2024-01-11T03:56:22;46.67;;;30.10;;
23163;SDS011;31429;42.674;23.350;2024-01-11T03:57:23;46.97;;;30.50;;
23163;SDS011;31429;42.674;23.350;2024-01-11T03:58:24;44.43;;;29.53;;
23163;SDS011;31429;42.674;23.350;2024-01-11T03:59:24;46.73;;;29.80;;
23163;SDS011;31429;42.674;23.350;2024-01-11T04:00:25;50.67;;;31.27;;
23163;SDS011;31429;42.674;23.350;2024-01-11T04:01:26;46.50;;;29.83;;
23163;SDS011;31429;42.674;23.350;2024-01-11T04:02:27;48.53;;;29.07;;
23163;SDS011;31429;42.674;23.350;2024-01-11T04:03:28;47.50;;;29.20;;
23163;SDS011;31429;42.674;23.350;2024-01-11T04:04:28;45.10;;;27.70;;
23163;SDS011;31429;42.674;23.350;2024-01-11T04:05:29;47.83;;;28.47;;
23163;SDS011;31429;42.674;23.350;2024-01-11T04:06:30;42.80;;;28.03;;
23163;SDS011;31429;42.674;23.350;2024-01-11T04:07:31;47.00;;;29.27;;
23163;SDS011;31429;42.674;23.350;2024-01-11T04:08:32;49.87;;;30.13;;
23163;SDS011;31429;42.674;23.350;2024-01-11T04:09:32;45.97;;;30.73;;
23163;SDS011;31429;42.674;23.350;2024-01-11T04:10:33;53.63;;;33.33;;
23163;SDS011;31429;42.674;23.350;2024-01-11T04:11:35;49.00;;;30.60;;
23163;SDS011;31429;42.674;23.350;2024-01-11T04:12:37;48.08;;;32.42;;
23163;SDS011;31429;42.674;23.350;2024-01-11T04:13:38;48.10;;;32.40;;
23163;SDS011;31429;42.674;23.350;2024-01-11T04:14:39;48.90;;;31.90;;
23163;SDS011;31429;42.674;23.350;2024-01-11T04:15:40;50.15;;;32.33;;
23163;SDS011;31429;42.674;23.350;2024-01-11T04:16:41;48.30;;;31.10;;
23163;SDS011;31429;42.674;23.350;2024-01-11T04:17:43;49.05;;;31.90;;
23163;SDS011;31429;42.674;23.350;2024-01-11T04:18:44;47.20;;;30.77;;
23163;SDS011;31429;42.674;23.350;2024-01-11T04:19:44;48.23;;;30.90;;
23163;SDS011;31429;42.674;23.350;2024-01-11T04:20:45;53.43;;;31.83;;
23163;SDS011;31429;42.674;23.350;2024-01-11T04:21:46;47.37;;;31.03;;
23163;SDS011;31429;42.674;23.350;2024-01-11T04:22:47;51.33;;;29.70;;
23163;SDS011;31429;42.674;23.350;2024-01-11T04:23:47;49.77;;;30.73;;
23163;SDS011;31429;42.674;23.350;2024-01-11T04:24:48;47.30;;;31.50;;
23163;SDS011;31429;42.674;23.350;2024-01-11T04:25:49;50.20;;;31.67;;
23163;SDS011;31429;42.674;23.350;2024-01-11T04:26:53;49.75;;;33.28;;
23163;SDS011;31429;42.674;23.350;2024-01-11T04:27:53;52.08;;;33.38;;
23163;SDS011;31429;42.674;23.350;2024-01-11T04:28:54;48.47;;;31.73;;
23163;SDS011;31429;42.674;23.350;2024-01-11T04:29:57;51.47;;;33.13;;
23163;SDS011;31429;42.674;23.350;2024-01-11T04:30:58;47.83;;;31.87;;
23163;SDS011;31429;42.674;23.350;2024-01-11T04:31:59;52.07;;;32.67;;
23163;SDS011;31429;42.674;23.350;2024-01-11T04:32:59;56.53;;;34.03;;
23163;SDS011;31429;42.674;23.350;2024-01-11T04:34:00;48.07;;;31.03;;
23163;SDS011;31429;42.674;23.350;2024-01-11T04:35:01;51.30;;;32.27;;
23163;SDS011;31429;42.674;23.350;2024-01-11T04:36:02;48.13;;;33.10;;
23163;SDS011;31429;42.674;23.350;2024-01-11T04:37:03;54.53;;;35.00;;
23163;SDS011;31429;42.674;23.350;2024-01-11T04:38:04;51.87;;;34.37;;
23163;SDS011;31429;42.674;23.350;2024-01-11T04:39:04;55.97;;;34.77;;
23163;SDS011;31429;42.674;23.350;2024-01-11T04:40:07;48.95;;;33.25;;
23163;SDS011;31429;42.674;23.350;2024-01-11T04:41:08;55.15;;;33.70;;
23163;SDS011;31429;42.674;23.350;2024-01-11T04:42:11;46.63;;;33.30;;
23163;SDS011;31429;42.674;23.350;2024-01-11T04:43:12;47.63;;;32.67;;
23163;SDS011;31429;42.674;23.350;2024-01-11T04:44:12;44.43;;;31.83;;
23163;SDS011;31429;42.674;23.350;2024-01-11T04:45:13;47.60;;;32.43;;
23163;SDS011;31429;42.674;23.350;2024-01-11T04:46:15;46.43;;;30.33;;
23163;SDS011;31429;42.674;23.350;2024-01-11T04:47:16;46.75;;;30.85;;
23163;SDS011;31429;42.674;23.350;2024-01-11T04:48:17;46.07;;;32.60;;
23163;SDS011;31429;42.674;23.350;2024-01-11T04:49:18;42.75;;;30.58;;
23163;SDS011;31429;42.674;23.350;2024-01-11T04:50:19;46.67;;;32.03;;
23163;SDS011;31429;42.674;23.350;2024-01-11T04:51:20;48.37;;;34.37;;
23163;SDS011;31429;42.674;23.350;2024-01-11T04:52:21;45.83;;;32.03;;
23163;SDS011;31429;42.674;23.350;2024-01-11T04:53:21;48.97;;;33.47;;
23163;SDS011;31429;42.674;23.350;2024-01-11T04:54:22;47.17;;;33.07;;
23163;SDS011;31429;42.674;23.350;2024-01-11T04:55:23;46.43;;;33.03;;
23163;SDS011;31429;42.674;23.350;2024-01-11T04:56:24;51.50;;;32.80;;
23163;SDS011;31429;42.674;23.350;2024-01-11T04:57:26;64.60;;;41.73;;
23163;SDS011;31429;42.674;23.350;2024-01-11T04:58:27;63.70;;;40.80;;
23163;SDS011;31429;42.674;23.350;2024-01-11T04:59:27;50.33;;;34.53;;
23163;SDS011;31429;42.674;23.350;2024-01-11T05:00:28;63.03;;;40.23;;
23163;SDS011;31429;42.674;23.350;2024-01-11T05:01:29;88.83;;;52.17;;
23163;SDS011;31429;42.674;23.350;2024-01-11T05:02:30;60.57;;;40.00;;
23163;SDS011;31429;42.674;23.350;2024-01-11T05:03:31;51.17;;;34.63;;
23163;SDS011;31429;42.674;23.350;2024-01-11T05:04:32;48.70;;;33.75;;
23163;SDS011;31429;42.674;23.350;2024-01-11T05:05:33;48.20;;;32.63;;
23163;SDS011;31429;42.674;23.350;2024-01-11T05:06:35;48.85;;;33.78;;
23163;SDS011;31429;42.674;23.350;2024-01-11T05:07:35;50.03;;;34.83;;
23163;SDS011;31429;42.674;23.350;2024-01-11T05:08:36;49.03;;;33.53;;
23163;SDS011;31429;42.674;23.350;2024-01-11T05:09:37;49.63;;;33.67;;
23163;SDS011;31429;42.674;23.350;2024-01-11T05:10:38;51.45;;;33.42;;
23163;SDS011;31429;42.674;23.350;2024-01-11T05:11:39;52.57;;;33.07;;
23163;SDS011;31429;42.674;23.350;2024-01-11T05:12:41;51.50;;;34.60;;
23163;SDS011;31429;42.674;23.350;2024-01-11T05:13:42;49.22;;;33.63;;
23163;SDS011;31429;42.674;23.350;2024-01-11T05:14:43;49.90;;;33.77;;
23163;SDS011;31429;42.674;23.350;2024-01-11T05:15:44;54.83;;;34.30;;
23163;SDS011;31429;42.674;23.350;2024-01-11T05:16:45;53.67;;;35.38;;
23163;SDS011;31429;42.674;23.350;2024-01-11T05:17:46;55.60;;;34.28;;
23163;SDS011;31429;42.674;23.350;2024-01-11T05:18:47;55.23;;;36.17;;
23163;SDS011;31429;42.674;23.350;2024-01-11T05:19:47;62.17;;;37.83;;
23163;SDS011;31429;42.674;23.350;2024-01-11T05:20:48;61.20;;;36.33;;
23163;SDS011;31429;42.674;23.350;2024-01-11T05:21:49;56.13;;;36.43;;
23163;SDS011;31429;42.674;23.350;2024-01-11T05:22:50;60.90;;;35.90;;
23163;SDS011;31429;42.674;23.350;2024-01-11T05:23:51;56.03;;;35.73;;
23163;SDS011;31429;42.674;23.350;2024-01-11T05:24:52;56.85;;;36.35;;
23163;SDS011;31429;42.674;23.350;2024-01-11T05:25:53;61.27;;;37.13;;
23163;SDS011;31429;42.674;23.350;2024-01-11T05:26:54;67.13;;;37.97;;
23163;SDS011;31429;42.674;23.350;2024-01-11T05:27:56;56.87;;;37.57;;
23163;SDS011;31429;42.674;23.350;2024-01-11T05:28:57;55.55;;;36.20;;
23163;SDS011;31429;42.674;23.350;2024-01-11T05:29:58;57.15;;;37.63;;
23163;SDS011;31429;42.674;23.350;2024-01-11T05:30:59;60.60;;;38.93;;
23163;SDS011;31429;42.674;23.350;2024-01-11T05:32:00;61.15;;;37.80;;
23163;SDS011;31429;42.674;23.350;2024-01-11T05:33:01;58.50;;;37.90;;
23163;SDS011;31429;42.674;23.350;2024-01-11T05:34:02;63.17;;;38.97;;
23163;SDS011;31429;42.674;23.350;2024-01-11T05:35:03;62.00;;;37.73;;
23163;SDS011;31429;42.674;23.350;2024-01-11T05:36:05;61.38;;;36.95;;
23163;SDS011;31429;42.674;23.350;2024-01-11T05:37:06;59.42;;;38.58;;
23163;SDS011;31429;42.674;23.350;2024-01-11T05:38:07;62.77;;;38.33;;
23163;SDS011;31429;42.674;23.350;2024-01-11T05:39:07;55.50;;;38.70;;
23163;SDS011;31429;42.674;23.350;2024-01-11T05:40:08;59.23;;;37.80;;
23163;SDS011;31429;42.674;23.350;2024-01-11T05:41:09;59.83;;;37.63;;
23163;SDS011;31429;42.674;23.350;2024-01-11T05:42:10;61.17;;;38.20;;
23163;SDS011;31429;42.674;23.350;2024-01-11T05:43:12;61.00;;;38.70;;
23163;SDS011;31429;42.674;23.350;2024-01-11T05:44:13;64.95;;;39.65;;
23163;SDS011;31429;42.674;23.350;2024-01-11T05:45:14;63.60;;;40.60;;
23163;SDS011;31429;42.674;23.350;2024-01-11T05:46:17;63.20;;;40.47;;
23163;SDS011;31429;42.674;23.350;2024-01-11T05:47:18;70.40;;;41.33;;
23163;SDS011;31429;42.674;23.350;2024-01-11T05:48:18;64.30;;;40.40;;
23163;SDS011;31429;42.674;23.350;2024-01-11T05:49:19;67.17;;;40.00;;
23163;SDS011;31429;42.674;23.350;2024-01-11T05:50:20;61.70;;;40.70;;
23163;SDS011;31429;42.674;23.350;2024-01-11T05:51:21;61.33;;;39.53;;
23163;SDS011;31429;42.674;23.350;2024-01-11T05:52:22;68.27;;;41.00;;